Bristow, KY

4:40 AM CST on January 23, 2017 (GMT -0600)
Clearing in wooded area | | Change Station

Elev 614 ft 37.05 °N, 86.38 °W | Updated 39 seconds ago

Overcast
Overcast
54.0 °F
Feels Like 54.0 °F
N
1.0
Wind Variable Wind from South
Gusts 0.0 mph

Today
High -- | Low -- °F
--% Chance of Precip.
Yesterday
High -- | Low -- °F
Precip. -- in
Pressure 29.38 in
Visibility 10.0 miles
Clouds Mostly Cloudy 1900 ft
Overcast 2500 ft
Dew Point 49 °F
Humidity 82%
Rainfall 0.00 in
Snow Depth Not available.
6:54 AM 5:01 PM
Waning Crescent, 19% visible
METAR KBWG 230953Z AUTO 33013G21KT 10SM BKN019 OVC025 13/10 A2939 RMK AO2 SLP949 T01330100
Pressure 29.38 in
Visibility 10.0 miles
Clouds Mostly Cloudy 1900 ft
Overcast 2500 ft
Dew Point 49 °F
Humidity 82%
Rainfall 0.00 in
Snow Depth Not available.
6:54 AM 5:01 PM
Waning Crescent, 19% visible
METAR KBWG 230953Z AUTO 33013G21KT 10SM BKN019 OVC025 13/10 A2939 RMK AO2 SLP949 T01330100

Get Your Daily Forecast Email!

Thanks for signing up!

Be on the lookout for a verification email in your inbox.

You'll start receiving the daily forecast at 8 AM.

×

10-Day Weather Forecast

Almanac

Astronomy

Jan. 23, 2017 Rise Set
Actual Time
Civil Twilight
Nautical Twilight
Astronomical Twilight
Moon
Length of Visible Light
Length of Day
Tomorrow will be .
, % of the Moon is Illuminated

Today's Extremes

State Highs State Lows

Community

WunderPhotos

Upload Photos

1,962,540 photos uploaded!

WunderBlog® & News

Nearby

Air Quality

  Air Quality AQ Index Pollutant
Not available.

Snow Depth

Station Depth Elevation

Earthquake Activity

City Distance Mag. Time & Date
Minimum magnitude displayed is 2.5.

Coastal Water Temperatures

Place Temperature

Stations

Nearby Weather Stations

Station Location Temp. Windchill Dew Point Humidity Wind Precip. Elev Updated Type
                   

Watches & Warnings

There are currently no watches in effect.